Time;durP1;ratioP1;P1;durP2;ratioP2;P2;SDS_P1;SDS_P2;PMS_P1;PMS_P2;Temp;Humidity;BMP_temperature;BMP_pressure;BME280_temperature;BME280_humidity;BME280_pressure;Samples;Min_cycle;Max_cycle;Signal;HPM_P1;HPM_P2
2021/08/04 00:00:09;;;;;;;;;7.50;5.00;;;;;19.26;55.33;100930.44;4999824;28;45353;-69
2021/08/04 00:02:34;;;;;;;;;8.50;6.00;;;;;19.20;55.59;100929.03;4999588;28;45466;-69
2021/08/04 00:05:00;;;;;;;;;6.00;6.00;;;;;19.36;55.41;100958.66;4999761;28;45438;-69
2021/08/04 00:07:26;;;;;;;;;8.00;6.00;;;;;19.27;55.44;100939.44;4999357;28;46089;-69
2021/08/04 00:09:51;;;;;;;;;6.25;5.00;;;;;19.22;55.51;100937.91;4999437;28;45446;-69
2021/08/04 00:12:17;;;;;;;;;7.00;7.00;;;;;19.34;55.73;100965.13;4999576;28;45529;-69
2021/08/04 00:14:42;;;;;;;;;9.25;8.50;;;;;19.22;56.08;100948.72;4999477;28;45244;-69
2021/08/04 00:17:07;;;;;;;;;5.25;5.25;;;;;19.20;55.88;100936.28;4998151;28;46586;-69
2021/08/04 00:19:33;;;;;;;;;7.00;5.50;;;;;19.00;56.07;100910.53;4999377;28;45605;-69
2021/08/04 00:21:59;;;;;;;;;10.50;7.00;;;;;19.10;56.01;100929.75;4999783;28;45387;-69
2021/08/04 00:24:24;;;;;;;;;6.00;6.00;;;;;19.23;56.54;100961.28;4997431;28;45828;-69
2021/08/04 00:26:49;;;;;;;;;5.50;5.25;;;;;19.20;55.88;100956.06;4999335;28;45340;-69
2021/08/04 00:29:15;;;;;;;;;10.25;6.75;;;;;18.95;56.09;100910.81;5000130;28;45368;-69
2021/08/04 00:31:40;;;;;;;;;8.75;7.00;;;;;19.20;56.12;100958.78;5002866;28;45281;-69
2021/08/04 00:34:06;;;;;;;;;5.50;5.50;;;;;19.15;56.00;100951.94;5002588;28;45237;-69
2021/08/04 00:36:31;;;;;;;;;6.25;5.00;;;;;18.85;55.73;100910.53;5002552;28;45507;-69
2021/08/04 00:38:58;;;;;;;;;6.00;6.00;;;;;19.06;55.80;100942.56;5002413;28;45323;-69
2021/08/04 00:41:23;;;;;;;;;5.25;4.25;;;;;18.91;55.83;100925.53;5002531;28;45533;-69
2021/08/04 00:43:48;;;;;;;;;4.75;4.75;;;;;18.96;56.17;100938.72;5002534;28;45418;-69
2021/08/04 00:46:14;;;;;;;;;6.75;5.75;;;;;18.99;55.64;100944.81;5002382;28;45470;-69
2021/08/04 00:48:42;;;;;;;;;5.25;5.25;;;;;18.87;56.02;100932.06;5001070;28;45304;-69
2021/08/04 00:51:08;;;;;;;;;6.25;6.25;;;;;19.01;56.11;100950.13;5002487;28;45381;-69
2021/08/04 00:53:34;;;;;;;;;7.75;6.25;;;;;18.81;55.87;100913.50;5001903;28;45431;-69
2021/08/04 00:56:00;;;;;;;;;7.50;6.00;;;;;18.84;56.12;100925.03;5002118;28;47259;-69
2021/08/04 00:58:35;;;;;;;;;6.50;6.50;;;;;18.86;55.97;100922.22;5002185;28;45478;-69
2021/08/04 01:01:09;;;;;;;;;6.75;6.25;;;;;18.85;56.27;100934.03;5002447;28;45332;-69
2021/08/04 01:03:43;;;;;;;;;5.75;5.75;;;;;18.70;56.18;100906.94;5001071;28;45947;-69
2021/08/04 01:06:44;;;;;;;;;7.25;6.25;;;;;18.89;55.95;100932.84;5001851;28;47439;-69
2021/08/04 01:09:12;;;;;;;;;7.25;6.00;;;;;18.68;56.16;100902.63;4998934;28;45305;-69
2021/08/04 01:11:40;;;;;;;;;5.75;5.75;;;;;18.75;56.36;100925.59;5002225;28;45265;-69
2021/08/04 01:14:15;;;;;;;;;6.00;6.00;;;;;18.81;56.70;100937.84;5002165;28;45395;-69
2021/08/04 01:16:43;;;;;;;;;5.00;5.00;;;;;18.73;56.56;100916.72;4989745;28;46294;-69
2021/08/04 01:19:35;;;;;;;;;5.00;5.00;;;;;18.78;56.52;100920.00;5001865;28;45481;-69
2021/08/04 01:22:25;;;;;;;;;6.00;6.00;;;;;18.54;56.50;100889.97;5002123;28;45477;-69
2021/08/04 01:25:02;;;;;;;;;5.50;5.50;;;;;18.63;56.96;100905.63;4993167;28;45462;-69
2021/08/04 01:27:29;;;;;;;;;7.50;6.25;;;;;18.73;56.61;100921.22;5001650;28;45412;-69
2021/08/04 01:29:55;;;;;;;;;8.25;8.25;;;;;18.69;57.13;100923.25;5002015;28;45478;-69
2021/08/04 01:32:22;;;;;;;;;5.25;4.00;;;;;18.61;56.67;100912.06;5001702;28;45376;-69
2021/08/04 01:34:48;;;;;;;;;6.00;6.00;;;;;18.59;56.64;100914.88;5001803;28;45533;-69
2021/08/04 01:37:14;;;;;;;;;5.00;5.00;;;;;18.66;57.07;100918.06;5000372;28;47115;-69
2021/08/04 01:39:40;;;;;;;;;6.00;6.00;;;;;18.66;56.77;100921.66;5001204;28;45247;-69
2021/08/04 01:42:06;;;;;;;;;7.00;6.00;;;;;18.65;57.02;100916.34;5001673;28;45237;-69
2021/08/04 01:44:34;;;;;;;;;11.50;10.00;;;;;18.63;57.23;100911.03;5001782;28;45436;-69
2021/08/04 01:47:00;;;;;;;;;25.75;21.75;;;;;18.62;57.34;100917.38;5001313;28;46113;-69
2021/08/04 01:49:30;;;;;;;;;57.25;43.25;;;;;18.53;56.83;100899.06;4989122;28;45404;-69
2021/08/04 01:51:56;;;;;;;;;74.25;56.75;;;;;18.52;57.00;100908.13;4995328;28;45260;-69
2021/08/04 01:54:24;;;;;;;;;68.50;51.25;;;;;18.55;57.21;100910.63;4992972;28;45495;-69
2021/08/04 01:56:50;;;;;;;;;69.25;56.00;;;;;18.41;57.41;100872.78;4999879;28;47479;-69
2021/08/04 01:59:18;;;;;;;;;69.25;54.75;;;;;18.52;57.03;100900.88;5001380;28;45359;-69
2021/08/04 02:01:44;;;;;;;;;63.75;48.25;;;;;18.40;57.05;100876.47;5001533;28;45411;-69
2021/08/04 02:04:09;;;;;;;;;66.50;51.75;;;;;18.32;57.34;100875.09;5001161;28;45229;-69
2021/08/04 02:07:06;;;;;;;;;63.75;49.75;;;;;18.40;57.65;100882.75;5000875;28;45508;-69
2021/08/04 02:09:46;;;;;;;;;59.25;49.75;;;;;18.48;57.07;100896.63;4996573;28;45859;-69
2021/08/04 02:12:11;;;;;;;;;59.00;47.25;;;;;18.51;57.58;100899.16;5001288;28;45423;-69
2021/08/04 02:14:50;;;;;;;;;51.50;43.25;;;;;18.38;57.36;100879.28;5001166;28;45389;-69
2021/08/04 02:17:54;;;;;;;;;46.75;38.25;;;;;18.31;57.41;100870.69;5001011;28;45506;-69
2021/08/04 02:20:28;;;;;;;;;49.00;40.00;;;;;18.40;57.79;100893.53;4992310;28;45178;-69
2021/08/04 02:23:03;;;;;;;;;42.75;35.00;;;;;18.31;57.09;100883.31;5000869;28;45560;-70
2021/08/04 02:25:48;;;;;;;;;42.25;37.00;;;;;18.39;57.84;100897.19;5000581;28;45660;-69
2021/08/04 02:28:21;;;;;;;;;41.25;35.00;;;;;18.25;57.97;100876.47;5000792;28;45993;-69
2021/08/04 02:30:49;;;;;;;;;36.25;32.75;;;;;18.18;57.94;100861.59;5000879;28;45365;-69
2021/08/04 02:33:15;;;;;;;;;38.50;33.00;;;;;18.27;57.64;100873.66;5000928;28;45430;-69
2021/08/04 02:35:41;;;;;;;;;33.25;29.50;;;;;18.30;57.52;100874.34;5000793;28;45369;-69
2021/08/04 02:38:06;;;;;;;;;36.25;32.25;;;;;18.21;58.01;100865.94;5000612;28;46434;-69
2021/08/04 02:40:32;;;;;;;;;36.75;32.25;;;;;18.11;57.83;100852.16;5000567;28;45157;-69
2021/08/04 02:42:59;;;;;;;;;33.25;29.75;;;;;18.15;58.17;100859.94;5000924;28;45373;-69
2021/08/04 02:45:24;;;;;;;;;34.25;32.50;;;;;18.08;57.67;100846.94;5000736;28;45229;-69
2021/08/04 02:47:50;;;;;;;;;32.25;29.75;;;;;18.27;58.09;100885.31;5000368;28;46536;-69
2021/08/04 02:50:16;;;;;;;;;32.00;29.00;;;;;18.26;57.88;100874.63;5000489;28;45449;-69
2021/08/04 02:52:42;;;;;;;;;19.25;17.50;;;;;18.04;58.07;100843.56;4998532;28;45473;-69
2021/08/04 02:55:08;;;;;;;;;25.75;23.00;;;;;18.17;57.94;100869.81;4999073;28;45261;-69
2021/08/04 02:57:34;;;;;;;;;22.75;21.75;;;;;18.09;58.01;100851.34;4999328;28;45489;-69
2021/08/04 03:00:00;;;;;;;;;21.00;19.50;;;;;18.21;57.67;100874.94;5000403;28;45501;-69
2021/08/04 03:02:25;;;;;;;;;19.75;18.25;;;;;18.07;57.90;100850.59;5000327;28;45296;-69
2021/08/04 03:04:51;;;;;;;;;15.00;15.00;;;;;18.09;58.38;100857.66;5000236;28;45225;-69
2021/08/04 03:07:16;;;;;;;;;17.25;16.25;;;;;18.03;57.84;100852.63;5000002;28;46471;-69
2021/08/04 03:09:42;;;;;;;;;15.75;15.75;;;;;18.08;58.06;100860.44;4998902;28;45323;-69
2021/08/04 03:12:07;;;;;;;;;18.00;16.50;;;;;18.15;57.96;100872.59;5000465;28;45281;-69
2021/08/04 03:14:33;;;;;;;;;18.50;15.50;;;;;18.10;58.24;100869.31;5000235;28;45410;-69
2021/08/04 03:16:58;;;;;;;;;14.50;13.50;;;;;18.11;58.22;100869.22;4998878;28;48059;-69
2021/08/04 03:19:23;;;;;;;;;20.25;17.00;;;;;18.12;58.79;100876.34;5015172;28;45209;-69
2021/08/04 03:21:49;;;;;;;;;14.00;13.50;;;;;18.11;58.61;100871.91;5000421;28;45296;-69
2021/08/04 03:24:14;;;;;;;;;17.00;14.00;;;;;17.88;58.38;100834.66;4999356;28;45560;-69
2021/08/04 03:26:39;;;;;;;;;11.00;11.00;;;;;18.07;58.55;100864.09;5000131;28;45613;-69
2021/08/04 03:29:05;;;;;;;;;12.00;12.00;;;;;18.04;58.33;100861.56;5000028;28;45404;-69
2021/08/04 03:31:30;;;;;;;;;13.75;13.75;;;;;17.80;58.21;100826.13;5000463;28;45375;-69
2021/08/04 03:33:56;;;;;;;;;16.00;13.50;;;;;18.02;58.43;100860.81;5000008;28;45592;-69
2021/08/04 03:36:23;;;;;;;;;11.00;11.00;;;;;18.02;58.42;100864.38;4999907;28;45435;-69
2021/08/04 03:38:48;;;;;;;;;11.75;10.50;;;;;17.92;58.74;100844.31;4999675;28;45378;-69
2021/08/04 03:41:13;;;;;;;;;14.25;13.00;;;;;17.94;58.62;100848.66;4999899;28;45455;-69
2021/08/04 03:43:39;;;;;;;;;12.00;12.00;;;;;17.88;58.71;100850.88;4999869;28;45410;-69
2021/08/04 03:46:04;;;;;;;;;11.50;10.00;;;;;17.85;58.87;100843.78;4999877;28;45371;-69
2021/08/04 03:48:30;;;;;;;;;11.25;10.25;;;;;17.74;59.31;100820.16;4999380;28;45183;-68
2021/08/04 03:50:55;;;;;;;;;10.25;9.25;;;;;17.78;59.19;100839.72;4999970;28;45588;-69
2021/08/04 03:53:20;;;;;;;;;12.75;11.50;;;;;17.92;58.98;100866.75;4999297;28;45459;-69
2021/08/04 03:55:46;;;;;;;;;9.75;8.50;;;;;17.90;59.24;100862.44;4999613;28;46384;-69
2021/08/04 03:58:11;;;;;;;;;12.75;11.25;;;;;17.84;58.90;100863.66;4998447;28;45348;-69
2021/08/04 04:00:37;;;;;;;;;9.50;9.50;;;;;17.46;58.77;100798.47;4999843;28;45325;-69
2021/08/04 04:03:02;;;;;;;;;9.00;7.00;;;;;17.74;59.16;100857.94;5001195;28;45422;-69
2021/08/04 04:05:27;;;;;;;;;9.25;8.75;;;;;17.74;58.99;100863.34;5001840;28;47317;-69
2021/08/04 04:07:53;;;;;;;;;11.25;9.75;;;;;17.81;59.28;100876.44;5002696;28;45222;-68
2021/08/04 04:10:18;;;;;;;;;10.75;9.75;;;;;17.83;58.77;100872.72;5002028;28;45228;-69
2021/08/04 04:12:44;;;;;;;;;9.00;9.00;;;;;17.82;59.21;100880.91;5002914;28;45517;-69
2021/08/04 04:15:10;;;;;;;;;9.75;9.00;;;;;17.66;59.22;100859.34;5002025;28;46357;-69
2021/08/04 04:17:35;;;;;;;;;7.00;7.00;;;;;17.71;59.11;100868.94;5001610;28;45760;-69
2021/08/04 04:20:01;;;;;;;;;10.75;8.50;;;;;17.74;59.02;100868.75;5003228;28;45320;-69
2021/08/04 04:22:26;;;;;;;;;10.00;10.00;;;;;17.70;58.79;100860.91;5002554;28;45451;-68
2021/08/04 04:24:51;;;;;;;;;9.50;9.50;;;;;17.59;59.06;100845.34;5001257;28;46404;-69
2021/08/04 04:27:17;;;;;;;;;10.00;9.25;;;;;17.73;59.23;100867.00;5002686;28;45422;-69
2021/08/04 04:29:42;;;;;;;;;8.00;8.00;;;;;17.74;59.07;100865.16;5003012;28;45406;-69
2021/08/04 04:32:08;;;;;;;;;8.00;8.00;;;;;17.67;58.75;100851.16;5002600;28;45581;-69
2021/08/04 04:34:34;;;;;;;;;10.75;10.75;;;;;17.68;59.44;100847.50;5002743;28;46203;-69
2021/08/04 04:36:59;;;;;;;;;9.50;9.50;;;;;17.66;58.90;100841.34;5001307;28;45539;-69
2021/08/04 04:39:26;;;;;;;;;7.50;7.50;;;;;17.61;59.12;100838.06;5002537;28;45391;-69
2021/08/04 04:41:51;;;;;;;;;8.75;7.75;;;;;17.68;58.71;100850.22;5002504;28;45490;-69
2021/08/04 04:44:17;;;;;;;;;11.50;11.50;;;;;17.60;59.33;100839.88;5001352;28;46095;-69
2021/08/04 04:46:42;;;;;;;;;9.00;8.50;;;;;17.61;59.42;100838.06;5002396;28;45363;-69
2021/08/04 04:49:07;;;;;;;;;8.25;8.25;;;;;17.62;59.52;100841.63;5001274;28;45285;-69
2021/08/04 04:51:33;;;;;;;;;11.25;9.50;;;;;17.51;59.52;100824.25;5002510;28;45353;-68
2021/08/04 04:53:58;;;;;;;;;12.25;12.25;;;;;17.64;59.70;100847.78;5001913;28;47201;-69
2021/08/04 04:56:24;;;;;;;;;9.75;9.50;;;;;17.65;59.50;100849.53;5002194;28;45284;-69
2021/08/04 04:58:49;;;;;;;;;9.50;9.50;;;;;17.35;59.76;100799.13;5002678;28;45709;-69
2021/08/04 05:01:14;;;;;;;;;9.00;9.00;;;;;17.65;59.92;100850.38;5001032;28;45651;-69
2021/08/04 05:03:40;;;;;;;;;8.25;8.25;;;;;17.70;59.87;100859.06;5002127;28;46196;-69
2021/08/04 05:06:05;;;;;;;;;8.00;7.75;;;;;17.64;59.36;100845.09;5001903;28;45272;-69
2021/08/04 05:08:30;;;;;;;;;9.50;9.25;;;;;17.67;59.21;100858.41;5000871;28;45288;-68
2021/08/04 05:10:56;;;;;;;;;11.25;11.25;;;;;17.68;59.91;100863.72;5001972;28;45356;-69
2021/08/04 05:13:21;;;;;;;;;11.00;11.00;;;;;17.63;59.48;100854.16;5001948;28;45332;-68
2021/08/04 05:15:47;;;;;;;;;8.25;7.75;;;;;17.72;59.55;100875.19;5000022;28;45297;-69
2021/08/04 05:18:12;;;;;;;;;10.75;9.00;;;;;17.71;59.60;100866.22;5000883;28;45434;-69
2021/08/04 05:20:37;;;;;;;;;10.25;9.00;;;;;17.62;59.95;100860.50;5001905;28;45454;-69
2021/08/04 05:23:03;;;;;;;;;10.50;10.50;;;;;17.61;59.58;100854.25;5001978;28;45566;-69
2021/08/04 05:25:29;;;;;;;;;10.00;8.75;;;;;17.67;59.30;100871.91;5001460;28;45292;-69
2021/08/04 05:27:54;;;;;;;;;10.25;9.25;;;;;17.63;59.90;100862.25;5002109;28;45328;-69
2021/08/04 05:30:20;;;;;;;;;11.50;10.25;;;;;17.66;59.80;100868.34;5000458;28;45332;-69
2021/08/04 05:32:45;;;;;;;;;8.75;8.50;;;;;17.64;59.77;100859.47;5001666;28;46512;-69
2021/08/04 05:35:11;;;;;;;;;10.00;10.00;;;;;17.72;59.44;100869.78;5000491;28;45191;-69
2021/08/04 05:37:37;;;;;;;;;9.50;9.00;;;;;17.69;59.59;100862.75;5001798;28;45166;-69
2021/08/04 05:40:03;;;;;;;;;9.50;8.75;;;;;17.63;59.44;100854.16;5001607;28;45397;-69
2021/08/04 05:42:28;;;;;;;;;9.75;9.75;;;;;17.63;59.78;100851.47;5001550;28;45524;-69
2021/08/04 05:44:54;;;;;;;;;12.50;11.50;;;;;17.63;59.64;100848.75;5001379;28;45406;-81
2021/08/04 05:47:19;;;;;;;;;9.50;9.50;;;;;17.75;59.61;100866.91;5001308;28;45232;-82
2021/08/04 05:49:45;;;;;;;;;8.50;8.50;;;;;17.72;59.32;100861.69;5001348;28;45217;-82
2021/08/04 05:52:10;;;;;;;;;10.25;10.25;;;;;17.51;59.32;100834.19;4999770;28;46938;-82
2021/08/04 05:54:35;;;;;;;;;10.00;10.00;;;;;17.49;59.78;100820.78;4999326;28;45439;-82
2021/08/04 05:57:01;;;;;;;;;10.00;10.00;;;;;17.63;59.31;100849.63;5000117;28;45388;-82
2021/08/04 05:59:26;;;;;;;;;11.50;10.25;;;;;17.70;59.41;100856.38;4999330;28;45350;-82
2021/08/04 06:01:51;;;;;;;;;11.00;9.75;;;;;17.86;59.36;100877.03;4999425;28;49604;-76
2021/08/04 06:04:17;;;;;;;;;10.25;8.75;;;;;17.62;59.65;100847.88;4990733;28;45398;-80
2021/08/04 06:06:42;;;;;;;;;12.00;9.75;;;;;17.89;59.50;100880.47;5001272;28;45547;-83
2021/08/04 06:09:07;;;;;;;;;10.50;10.50;;;;;17.88;59.07;100867.06;4999975;28;45494;-82
2021/08/04 06:11:33;;;;;;;;;9.25;8.75;;;;;18.00;59.23;100884.34;5001114;28;45476;-83
2021/08/04 06:13:58;;;;;;;;;9.50;9.50;;;;;17.93;59.26;100870.34;4999852;28;45354;-83
2021/08/04 06:16:24;;;;;;;;;8.25;7.75;;;;;17.92;58.76;100877.56;4999423;28;45377;-82
2021/08/04 06:18:49;;;;;;;;;9.25;9.25;;;;;17.90;58.98;100857.03;4999434;28;45450;-83
2021/08/04 06:21:14;;;;;;;;;8.50;8.25;;;;;18.02;59.16;100875.19;4999525;28;45522;-84
2021/08/04 06:23:40;;;;;;;;;9.00;8.50;;;;;17.83;58.82;100839.44;4998648;28;45447;-84
2021/08/04 06:26:05;;;;;;;;;9.00;8.50;;;;;18.06;58.86;100868.63;4999438;28;45323;-82
2021/08/04 06:28:30;;;;;;;;;14.50;10.75;;;;;18.08;59.09;100873.94;5000955;28;45427;-83
2021/08/04 06:30:56;;;;;;;;;9.25;5.75;;;;;18.09;58.97;100868.44;4998966;28;45471;-81
2021/08/04 06:33:21;;;;;;;;;10.00;10.00;;;;;18.09;59.12;100871.16;5002133;28;45326;-81
2021/08/04 06:35:47;;;;;;;;;11.75;10.75;;;;;18.18;59.35;100872.41;4993448;28;45511;-83
2021/08/04 06:38:12;;;;;;;;;11.00;11.00;;;;;18.20;59.14;100872.31;4982506;28;46337;-83
2021/08/04 06:40:38;;;;;;;;;12.00;9.75;;;;;18.17;59.38;100869.81;4990776;28;45883;-83
2021/08/04 06:43:03;;;;;;;;;11.75;11.75;;;;;18.12;58.86;100865.53;4999451;28;45367;-82
2021/08/04 06:45:29;;;;;;;;;10.25;9.50;;;;;18.14;58.73;100869.03;4999790;28;45352;-82
2021/08/04 06:47:54;;;;;;;;;12.00;10.00;;;;;18.26;58.90;100886.31;4999406;28;45516;-83
2021/08/04 06:50:19;;;;;;;;;11.50;9.75;;;;;18.19;58.28;100867.88;4991651;28;48779;-81
2021/08/04 06:52:45;;;;;;;;;10.75;9.75;;;;;18.27;58.28;100876.38;5013970;28;45651;-82
2021/08/04 06:55:11;;;;;;;;;9.25;9.25;;;;;18.32;58.73;100876.94;4998593;28;45414;-82
2021/08/04 06:57:36;;;;;;;;;8.75;8.75;;;;;18.21;58.74;100857.81;4981571;28;45349;-82
2021/08/04 07:00:02;;;;;;;;;9.25;9.25;;;;;18.31;58.28;100876.09;4996856;28;45551;-82
2021/08/04 07:02:27;;;;;;;;;12.25;8.00;;;;;18.31;58.55;100876.09;4996484;28;46390;-82
2021/08/04 07:04:52;;;;;;;;;11.50;9.50;;;;;18.03;58.29;100827.44;4988130;28;45364;-82
2021/08/04 07:07:18;;;;;;;;;9.75;9.50;;;;;18.37;58.52;100874.81;4997364;28;45441;-82
2021/08/04 07:09:43;;;;;;;;;11.50;10.50;;;;;18.38;58.67;100876.56;4997927;28;45439;-81
2021/08/04 07:12:10;;;;;;;;;11.00;9.50;;;;;18.39;58.30;100886.38;4997480;28;45390;-81
2021/08/04 07:14:37;;;;;;;;;10.00;10.00;;;;;18.35;58.58;100876.75;4998900;28;45383;-81
2021/08/04 07:17:02;;;;;;;;;11.50;10.00;;;;;18.18;58.14;100844.53;4998951;28;45480;-81
2021/08/04 07:19:28;;;;;;;;;10.00;9.50;;;;;18.48;58.01;100891.22;4998776;28;45650;-81
2021/08/04 07:21:53;;;;;;;;;11.75;10.00;;;;;18.45;58.57;100879.75;4998951;28;45335;-81
2021/08/04 07:24:18;;;;;;;;;12.00;10.00;;;;;18.48;58.66;100876.84;4998260;28;45518;-69
2021/08/04 07:26:44;;;;;;;;;7.50;7.00;;;;;18.47;58.03;100867.00;4998797;28;46634;-74
2021/08/04 07:29:11;;;;;;;;;11.00;8.50;;;;;18.61;58.41;100890.44;4998485;28;46096;-69
2021/08/04 07:31:46;;;;;;;;;9.25;9.25;;;;;18.57;58.31;100872.69;4997295;28;45666;-68
2021/08/04 07:34:14;;;;;;;;;10.25;10.25;;;;;18.51;58.25;100861.31;4995992;28;45485;-72
2021/08/04 07:36:39;;;;;;;;;10.00;9.75;;;;;18.62;58.12;100871.41;4996709;28;45468;-79
2021/08/04 07:39:05;;;;;;;;;11.50;11.50;;;;;18.48;57.96;100842.56;4998995;28;45688;-73
2021/08/04 07:41:30;;;;;;;;;11.00;9.25;;;;;18.55;58.10;100850.31;4997963;28;45404;-72
2021/08/04 07:43:55;;;;;;;;;9.00;8.75;;;;;18.44;57.24;100841.06;4998951;28;45304;-73
2021/08/04 07:46:22;;;;;;;;;9.50;8.50;;;;;18.70;57.29;100879.91;4997822;28;45573;-74
2021/08/04 07:48:48;;;;;;;;;9.00;6.75;;;;;18.53;57.48;100842.28;4997467;28;46142;-73
2021/08/04 07:51:14;;;;;;;;;8.75;8.00;;;;;18.74;57.25;100867.06;4996846;28;45372;-73
2021/08/04 07:53:39;;;;;;;;;8.25;8.25;;;;;18.82;56.97;100872.84;4998244;28;45359;-73
2021/08/04 07:56:05;;;;;;;;;7.75;7.00;;;;;18.83;56.90;100866.50;4997820;28;45530;-73
2021/08/04 07:58:30;;;;;;;;;7.25;6.50;;;;;18.71;57.16;100853.75;4998938;28;46201;-73
2021/08/04 08:00:56;;;;;;;;;6.50;6.50;;;;;18.91;56.25;100867.84;4996131;28;45444;-73
2021/08/04 08:03:21;;;;;;;;;6.50;4.00;;;;;18.88;56.61;100856.25;4997852;28;45794;-72
2021/08/04 08:05:47;;;;;;;;;6.00;6.00;;;;;18.73;56.39;100840.13;5016553;28;45602;-72
2021/08/04 08:08:15;;;;;;;;;7.25;7.00;;;;;19.02;56.19;100885.09;4996903;28;45633;-73
2021/08/04 08:10:41;;;;;;;;;5.25;5.25;;;;;18.82;56.94;100842.22;4999234;28;45321;-73
2021/08/04 08:13:07;;;;;;;;;8.25;8.25;;;;;18.92;55.70;100851.50;5014175;28;45476;-72
2021/08/04 08:15:33;;;;;;;;;6.50;6.00;;;;;18.93;56.22;100846.94;5005238;28;45291;-73
2021/08/04 08:18:05;;;;;;;;;4.50;4.50;;;;;19.15;56.39;100879.75;4998319;28;47240;-73
2021/08/04 08:20:30;;;;;;;;;5.50;4.50;;;;;19.19;56.52;100881.28;4999135;28;45459;-73
2021/08/04 08:22:55;;;;;;;;;5.50;4.50;;;;;19.21;56.29;100873.06;4998493;28;45415;-73
2021/08/04 08:25:22;;;;;;;;;7.75;6.25;;;;;19.26;56.01;100873.59;4998912;28;45441;-73
2021/08/04 08:27:47;;;;;;;;;6.50;6.50;;;;;19.27;55.86;100866.38;4990770;28;45756;-72
2021/08/04 08:30:13;;;;;;;;;5.00;5.00;;;;;19.31;55.90;100862.47;4998808;28;45388;-70
2021/08/04 08:32:39;;;;;;;;;6.50;6.00;;;;;19.40;55.42;100873.56;4998351;28;45481;-72
2021/08/04 08:35:06;;;;;;;;;4.00;4.00;;;;;19.40;54.79;100865.44;4998741;28;45444;-73
2021/08/04 08:37:32;;;;;;;;;6.50;6.50;;;;;19.45;55.16;100867.84;4990102;28;45442;-74
2021/08/04 08:39:57;;;;;;;;;5.50;4.25;;;;;19.51;55.41;100861.13;4998593;28;45373;-73
2021/08/04 08:42:22;;;;;;;;;7.50;7.00;;;;;19.53;55.22;100868.19;4998241;28;45459;-73
2021/08/04 08:44:48;;;;;;;;;4.75;3.75;;;;;19.59;54.63;100875.88;4998504;28;45727;-74
2021/08/04 08:47:14;;;;;;;;;5.25;5.00;;;;;19.60;54.51;100879.47;4998037;28;46090;-74
2021/08/04 08:49:42;;;;;;;;;6.50;4.75;;;;;19.61;54.11;100860.41;4999579;28;45450;-73
2021/08/04 08:52:08;;;;;;;;;6.00;6.00;;;;;19.71;54.47;100868.78;5001412;28;45409;-73
2021/08/04 08:54:34;;;;;;;;;6.25;6.25;;;;;19.73;54.34;100863.22;5001195;28;45351;-72
2021/08/04 08:56:59;;;;;;;;;5.75;4.25;;;;;19.76;54.22;100863.06;5001776;28;45690;-72
2021/08/04 08:59:25;;;;;;;;;5.25;4.75;;;;;19.85;54.58;100873.28;5001224;28;52560;-72
2021/08/04 09:01:50;;;;;;;;;6.50;6.50;;;;;19.87;53.46;100873.16;5001973;28;45466;-72
2021/08/04 09:04:16;;;;;;;;;6.75;6.75;;;;;19.85;54.19;100859.72;5000939;28;45468;-72
2021/08/04 09:06:43;;;;;;;;;5.25;5.25;;;;;19.88;54.09;100859.53;5001329;28;45442;-73
2021/08/04 09:09:19;;;;;;;;;5.00;4.50;;;;;19.95;53.78;100868.94;5001348;28;45402;-73
2021/08/04 09:12:09;;;;;;;;;5.50;5.00;;;;;19.99;53.30;100870.44;4999398;28;45458;-72
2021/08/04 09:14:37;;;;;;;;;5.00;5.00;;;;;20.02;53.65;100868.53;5001308;28;45531;-73
2021/08/04 09:17:06;;;;;;;;;9.00;6.00;;;;;20.04;52.48;100871.97;5001088;28;46577;-72
2021/08/04 09:19:35;;;;;;;;;7.75;5.75;;;;;20.04;52.38;100878.25;4999626;28;45359;-72
2021/08/04 09:22:09;;;;;;;;;4.00;4.00;;;;;20.07;52.90;100867.22;5001345;28;45438;-72
2021/08/04 09:25:01;;;;;;;;;4.00;4.00;;;;;20.13;52.84;100861.38;5001181;28;45428;-72
2021/08/04 09:27:40;;;;;;;;;7.00;6.25;;;;;20.17;52.36;100860.16;5001041;28;46450;-73
2021/08/04 09:30:07;;;;;;;;;5.00;5.00;;;;;20.22;51.79;100856.28;5000892;28;45408;-73
2021/08/04 09:32:32;;;;;;;;;5.25;5.25;;;;;20.18;52.16;100853.78;5000926;28;45361;-73
2021/08/04 09:35:10;;;;;;;;;7.00;5.75;;;;;20.18;52.77;100844.78;4999239;28;45439;-72
2021/08/04 09:37:36;;;;;;;;;6.00;6.00;;;;;20.23;52.77;100852.56;4998693;28;45252;-73
2021/08/04 09:40:03;;;;;;;;;7.00;5.25;;;;;20.28;52.53;100848.56;4999394;28;45316;-72
2021/08/04 09:42:52;;;;;;;;;8.00;5.50;;;;;20.30;52.79;100846.63;5001081;28;45341;-72
2021/08/04 09:45:25;;;;;;;;;5.50;5.50;;;;;20.30;52.36;100843.03;4999886;28;45513;-74
2021/08/04 09:48:03;;;;;;;;;5.75;5.25;;;;;20.33;52.48;100843.69;5000861;28;46121;-72
2021/08/04 09:50:44;;;;;;;;;7.00;7.00;;;;;20.36;52.50;100834.44;5001210;28;45541;-72
2021/08/04 09:53:09;;;;;;;;;7.50;7.50;;;;;20.36;52.66;100829.03;4999918;28;45542;-73
2021/08/04 09:55:35;;;;;;;;;7.00;5.75;;;;;20.42;52.65;100841.28;4990373;28;45373;-72
2021/08/04 09:58:02;;;;;;;;;7.50;7.00;;;;;20.42;52.47;100844.00;5000846;28;45336;-72
2021/08/04 10:00:28;;;;;;;;;5.25;5.25;;;;;20.40;52.29;100835.97;5000908;28;45400;-72
2021/08/04 10:02:53;;;;;;;;;5.50;5.00;;;;;20.44;52.58;100833.91;5000959;28;45462;-72
2021/08/04 10:05:26;;;;;;;;;7.25;7.25;;;;;20.54;52.33;100840.38;5000942;28;45389;-72
2021/08/04 10:08:01;;;;;;;;;5.00;4.25;;;;;20.60;52.29;100839.06;5000439;28;46714;-72
2021/08/04 10:10:28;;;;;;;;;5.75;5.75;;;;;20.64;51.86;100832.50;5000836;28;45426;-72
2021/08/04 10:12:55;;;;;;;;;6.00;5.25;;;;;20.64;52.07;100825.22;5001090;28;45380;-71
2021/08/04 10:15:20;;;;;;;;;4.75;4.75;;;;;20.70;51.79;100827.47;5000953;28;45384;-74
2021/08/04 10:17:46;;;;;;;;;5.50;5.50;;;;;20.72;51.62;100820.09;5000559;28;46132;-71
2021/08/04 10:20:12;;;;;;;;;4.00;4.00;;;;;20.74;51.71;100817.25;5000854;28;45384;-71
2021/08/04 10:22:38;;;;;;;;;6.50;4.00;;;;;20.81;51.23;100820.38;5000691;28;45171;-70
2021/08/04 10:25:04;;;;;;;;;7.75;5.50;;;;;20.80;50.62;100821.34;4992156;28;45400;-70
2021/08/04 10:27:31;;;;;;;;;4.25;4.25;;;;;20.75;50.30;100807.28;5004323;28;45636;-71
2021/08/04 10:29:56;;;;;;;;;6.50;5.00;;;;;20.74;50.07;100811.84;4992928;28;45545;-70
2021/08/04 10:32:22;;;;;;;;;3.00;3.00;;;;;20.77;49.98;100822.47;4997690;28;45558;-71
2021/08/04 10:34:49;;;;;;;;;5.75;5.75;;;;;20.79;50.44;100811.50;5000250;28;46901;-70
2021/08/04 10:37:15;;;;;;;;;5.25;5.25;;;;;20.77;49.71;100808.91;4998085;28;45492;-71
2021/08/04 10:39:41;;;;;;;;;5.50;4.75;;;;;20.80;49.67;100810.50;5011819;28;45676;-71
2021/08/04 10:42:08;;;;;;;;;4.25;4.25;;;;;20.78;50.14;100807.94;4996238;28;45669;-71
2021/08/04 10:44:35;;;;;;;;;3.50;3.00;;;;;20.80;49.92;100805.97;4996784;28;45725;-71
2021/08/04 10:47:04;;;;;;;;;7.50;6.00;;;;;20.84;49.79;100803.88;5007099;28;45486;-70
2021/08/04 10:49:35;;;;;;;;;4.50;4.50;;;;;20.85;50.53;100809.19;5002238;28;45693;-70
2021/08/04 10:52:00;;;;;;;;;5.25;4.25;;;;;20.89;50.09;100812.53;5003418;28;45454;-70
2021/08/04 10:54:28;;;;;;;;;5.00;4.00;;;;;20.87;50.72;100809.09;5006429;28;45933;-70
2021/08/04 10:56:53;;;;;;;;;6.00;3.50;;;;;20.94;50.47;100806.78;5011827;28;46014;-71
2021/08/04 10:59:26;;;;;;;;;3.00;3.00;;;;;20.94;50.79;100801.34;4995572;28;45558;-71
2021/08/04 11:01:54;;;;;;;;;11.00;10.00;;;;;20.95;50.51;100800.34;4997078;28;45841;-70
2021/08/04 11:04:25;;;;;;;;;4.50;4.50;;;;;20.98;49.98;100808.28;5008275;28;45649;-70
2021/08/04 11:07:09;;;;;;;;;5.25;5.25;;;;;20.98;49.61;100809.16;5000152;28;45795;-70
2021/08/04 11:09:39;;;;;;;;;6.25;6.00;;;;;20.98;51.18;100819.13;4994740;28;45663;-70
2021/08/04 11:12:10;;;;;;;;;7.25;6.75;;;;;20.97;50.89;100820.13;4995266;28;45418;-70
2021/08/04 11:14:54;;;;;;;;;4.00;4.00;;;;;20.98;51.07;100824.56;4996053;28;45543;-71
2021/08/04 11:17:31;;;;;;;;;8.00;7.00;;;;;20.98;51.38;100820.00;4996037;28;45414;-71
2021/08/04 11:19:57;;;;;;;;;4.75;4.00;;;;;20.96;50.38;100818.38;4985389;28;45541;-71